createdAt,value
2018-07-20T00:00:02.542Z,99.90
2018-07-20T00:02:31.690Z,99.90
2018-07-20T00:05:00.855Z,99.90
2018-07-20T00:07:29.953Z,99.90
2018-07-20T00:09:59.107Z,99.90
2018-07-20T00:12:28.260Z,99.90
2018-07-20T00:14:57.453Z,99.90
2018-07-20T00:19:55.257Z,99.90
2018-07-20T00:22:24.395Z,99.90
2018-07-20T00:24:53.592Z,99.90
2018-07-20T00:27:22.730Z,99.90
2018-07-20T00:29:51.887Z,99.90
2018-07-20T00:32:21.023Z,99.90
2018-07-20T00:34:50.155Z,99.90
2018-07-20T00:37:19.431Z,99.90
2018-07-20T00:39:48.620Z,99.90
2018-07-20T00:42:17.765Z,99.90
2018-07-20T00:44:46.857Z,99.90
2018-07-20T00:47:16.012Z,99.90
2018-07-20T00:49:45.264Z,99.90
2018-07-20T00:52:14.429Z,99.90
2018-07-20T00:54:43.574Z,99.90
2018-07-20T00:57:12.691Z,99.90
2018-07-20T00:59:41.800Z,99.90
2018-07-20T01:02:11.310Z,99.90
2018-07-20T01:04:40.494Z,99.90
2018-07-20T01:07:09.804Z,99.90
2018-07-20T01:09:39.012Z,99.90
2018-07-20T01:12:11.079Z,99.90
2018-07-20T01:14:40.248Z,99.90
2018-07-20T01:17:09.444Z,99.90
2018-07-20T01:19:38.564Z,99.90
2018-07-20T01:22:07.981Z,99.90
2018-07-20T01:24:37.112Z,99.90
2018-07-20T01:27:07.097Z,99.90
2018-07-20T01:29:36.256Z,99.90
2018-07-20T01:32:05.419Z,99.90
2018-07-20T01:34:34.519Z,99.90
2018-07-20T01:37:03.752Z,99.90
2018-07-20T01:39:32.872Z,99.90
2018-07-20T01:42:02.024Z,99.90
2018-07-20T01:44:31.177Z,99.90
2018-07-20T01:47:00.303Z,99.90
2018-07-20T01:49:29.505Z,99.90
2018-07-20T01:51:58.645Z,99.90
2018-07-20T01:54:27.867Z,99.90
2018-07-20T01:56:56.961Z,99.90
2018-07-20T01:59:26.140Z,99.90
2018-07-20T02:01:55.276Z,99.90
2018-07-20T02:04:25.114Z,99.90
2018-07-20T02:06:54.363Z,99.90
2018-07-20T02:09:23.595Z,99.90
2018-07-20T02:11:52.747Z,99.90
2018-07-20T02:14:21.924Z,99.90
2018-07-20T02:16:51.302Z,99.90
2018-07-20T02:19:20.441Z,99.90
2018-07-20T02:21:49.565Z,99.90
2018-07-20T02:24:18.666Z,99.90
2018-07-20T02:26:47.787Z,99.90
2018-07-20T02:29:16.907Z,99.90
2018-07-20T02:31:46.017Z,99.90
2018-07-20T02:34:15.152Z,99.90
2018-07-20T02:36:44.276Z,99.90
2018-07-20T02:39:13.892Z,99.90
2018-07-20T02:41:43.313Z,99.90
2018-07-20T02:44:12.429Z,99.90
2018-07-20T02:46:41.579Z,99.90
2018-07-20T02:49:10.823Z,99.90
2018-07-20T02:51:39.957Z,99.90
2018-07-20T02:54:09.166Z,99.90
2018-07-20T02:56:38.369Z,99.90
2018-07-20T02:59:08.026Z,99.90
2018-07-20T03:01:37.216Z,99.90
2018-07-20T03:04:06.479Z,99.90
2018-07-20T03:06:36.778Z,99.90
2018-07-20T03:09:10.063Z,99.90
2018-07-20T03:14:08.388Z,99.90
2018-07-20T03:16:37.584Z,99.90
2018-07-20T03:19:07.112Z,99.90
2018-07-20T03:21:36.347Z,99.90
2018-07-20T03:24:05.569Z,99.90
2018-07-20T03:29:03.645Z,99.90
2018-07-20T03:31:32.742Z,99.90
2018-07-20T03:34:01.870Z,99.90
2018-07-20T03:36:30.976Z,99.90
2018-07-20T03:39:00.131Z,99.90
2018-07-20T03:41:29.890Z,99.90
2018-07-20T03:43:58.979Z,99.90
2018-07-20T03:46:28.130Z,99.90
2018-07-20T03:48:57.318Z,99.90
2018-07-20T03:53:55.176Z,99.90
2018-07-20T03:56:24.364Z,99.90
2018-07-20T03:58:53.523Z,99.90
2018-07-20T04:01:22.718Z,99.90
2018-07-20T04:03:51.839Z,99.90
2018-07-20T04:06:21.002Z,99.90
2018-07-20T04:08:50.113Z,99.90
2018-07-20T04:11:19.263Z,99.90
2018-07-20T04:13:48.411Z,99.90
2018-07-20T04:16:17.571Z,99.90
2018-07-20T04:18:46.720Z,99.90
2018-07-20T04:21:15.841Z,99.90
2018-07-20T04:23:44.935Z,99.90
2018-07-20T04:26:14.107Z,99.90
2018-07-20T04:28:43.247Z,99.90
2018-07-20T04:31:12.402Z,99.90
2018-07-20T04:33:41.476Z,99.90
2018-07-20T04:36:10.640Z,99.90
2018-07-20T04:38:39.839Z,99.90
2018-07-20T04:41:09.510Z,99.90
2018-07-20T04:43:38.616Z,99.90
2018-07-20T04:46:07.815Z,99.90
2018-07-20T04:48:36.995Z,99.90
2018-07-20T04:51:06.354Z,99.90
2018-07-20T04:53:35.616Z,99.90
2018-07-20T04:58:33.650Z,99.90
2018-07-20T05:01:02.807Z,99.90
2018-07-20T05:03:31.960Z,99.90
2018-07-20T05:06:01.167Z,99.90
2018-07-20T05:08:30.200Z,99.90
2018-07-20T05:10:59.435Z,99.90
2018-07-20T05:13:28.596Z,99.90
2018-07-20T05:15:57.796Z,99.90
2018-07-20T05:18:26.968Z,99.90
2018-07-20T05:20:56.126Z,99.90
2018-07-20T05:23:25.256Z,99.90
2018-07-20T05:25:54.386Z,99.90
2018-07-20T05:28:23.605Z,99.90
2018-07-20T05:30:53.668Z,99.90
2018-07-20T05:33:22.756Z,99.90
2018-07-20T05:35:51.883Z,99.90
2018-07-20T05:38:21.024Z,99.90
2018-07-20T05:40:50.319Z,99.90
2018-07-20T05:43:19.463Z,99.90
2018-07-20T05:45:48.561Z,99.90
2018-07-20T05:48:17.696Z,99.90
2018-07-20T05:50:46.844Z,99.90
2018-07-20T05:53:16.013Z,99.90
2018-07-20T05:55:45.129Z,99.90
2018-07-20T05:58:14.233Z,99.90
2018-07-20T06:00:43.390Z,99.90
2018-07-20T06:03:12.528Z,99.90
2018-07-20T06:05:41.827Z,99.90
2018-07-20T06:08:10.916Z,99.90
2018-07-20T06:10:40.169Z,99.90
2018-07-20T06:13:09.383Z,99.90
2018-07-20T06:15:38.502Z,99.90
2018-07-20T06:18:07.641Z,99.90
2018-07-20T06:20:36.769Z,99.90
2018-07-20T06:23:06.046Z,99.90
2018-07-20T06:25:35.179Z,99.90
2018-07-20T06:28:04.326Z,99.90
2018-07-20T06:30:33.534Z,99.90
2018-07-20T06:33:03.441Z,99.90
2018-07-20T06:35:32.594Z,99.90
2018-07-20T06:38:01.762Z,99.90
2018-07-20T06:40:30.859Z,99.90
2018-07-20T06:42:59.997Z,99.90
2018-07-20T06:45:29.178Z,99.90
2018-07-20T06:47:58.410Z,99.90
2018-07-20T06:50:27.622Z,99.90
2018-07-20T06:52:56.806Z,99.90
2018-07-20T06:55:26.008Z,99.90
2018-07-20T06:57:55.202Z,99.90
2018-07-20T07:00:24.550Z,99.90
2018-07-20T07:02:53.717Z,99.90
2018-07-20T07:05:22.848Z,99.90
2018-07-20T07:07:51.936Z,99.90
2018-07-20T07:10:21.156Z,99.90
2018-07-20T07:12:50.273Z,99.90
2018-07-20T07:15:19.834Z,99.90
2018-07-20T07:17:48.855Z,99.90
2018-07-20T07:20:17.990Z,99.90
2018-07-20T07:22:47.601Z,99.10
2018-07-20T07:25:16.865Z,99.50
2018-07-20T07:27:45.984Z,98.30
2018-07-20T07:30:15.140Z,98.70
2018-07-20T07:32:44.231Z,96.90
2018-07-20T07:35:13.423Z,98.00
2018-07-20T07:37:42.558Z,96.50
2018-07-20T07:40:11.693Z,96.00
2018-07-20T07:42:40.944Z,96.50
2018-07-20T07:45:10.227Z,95.90
2018-07-20T07:47:40.014Z,95.00
2018-07-20T07:50:09.173Z,95.20
2018-07-20T07:52:38.353Z,95.90
2018-07-20T07:55:07.559Z,96.40
2018-07-20T07:57:36.671Z,96.20
2018-07-20T08:00:06.023Z,96.70
2018-07-20T08:05:03.994Z,96.40
2018-07-20T08:07:33.243Z,97.00
2018-07-20T08:10:02.640Z,95.80
2018-07-20T08:12:31.618Z,95.60
2018-07-20T08:15:01.536Z,96.10
2018-07-20T08:17:31.268Z,96.30
2018-07-20T08:20:00.481Z,94.20
2018-07-20T08:22:29.603Z,94.30
2018-07-20T08:24:58.751Z,94.40
2018-07-20T08:27:27.875Z,93.70
2018-07-20T08:29:57.019Z,93.10
2018-07-20T08:32:26.140Z,92.80
2018-07-20T08:34:55.419Z,93.20
2018-07-20T08:37:24.724Z,92.80
2018-07-20T08:39:53.980Z,92.20
2018-07-20T08:42:23.088Z,92.70
2018-07-20T08:44:52.257Z,92.10
2018-07-20T08:47:21.481Z,92.10
2018-07-20T08:49:50.634Z,92.00
2018-07-20T08:52:19.946Z,91.90
2018-07-20T08:54:49.114Z,91.70
2018-07-20T08:57:18.364Z,91.20
2018-07-20T08:59:47.828Z,91.40
2018-07-20T09:02:17.733Z,89.10
2018-07-20T09:07:15.621Z,90.40
2018-07-20T09:12:13.454Z,90.00
2018-07-20T09:14:42.604Z,89.90
2018-07-20T09:17:11.932Z,86.90
2018-07-20T09:19:41.044Z,87.70
2018-07-20T09:22:10.273Z,89.50
2018-07-20T09:24:39.510Z,87.60
2018-07-20T09:27:08.791Z,85.30
2018-07-20T09:29:37.976Z,86.40
2018-07-20T09:32:07.123Z,84.20
2018-07-20T09:34:36.328Z,84.90
2018-07-20T09:37:05.609Z,86.30
2018-07-20T09:39:34.844Z,85.70
2018-07-20T09:42:04.835Z,82.90
2018-07-20T09:44:33.963Z,82.40
2018-07-20T09:47:03.303Z,82.00
2018-07-20T09:49:33.669Z,81.70
2018-07-20T09:52:02.819Z,84.50
2018-07-20T09:54:32.122Z,84.00
2018-07-20T09:57:01.269Z,85.00
2018-07-20T09:59:30.597Z,83.40
2018-07-20T10:01:59.809Z,81.60
2018-07-20T10:04:29.206Z,81.50
2018-07-20T10:06:58.333Z,79.70
2018-07-20T10:09:27.553Z,76.30
2018-07-20T10:11:56.717Z,80.10
2018-07-20T10:14:25.927Z,79.50
2018-07-20T10:16:55.056Z,79.30
2018-07-20T10:19:24.310Z,79.10
2018-07-20T10:21:53.486Z,80.30
2018-07-20T10:24:22.785Z,83.50
2018-07-20T10:26:51.999Z,83.20
2018-07-20T10:29:21.260Z,79.30
2018-07-20T10:31:57.227Z,80.60
2018-07-20T10:34:26.485Z,77.20
2018-07-20T10:36:55.718Z,70.80
2018-07-20T10:39:24.873Z,69.60
2018-07-20T10:41:54.186Z,71.50
2018-07-20T10:44:23.336Z,73.50
2018-07-20T10:46:52.568Z,72.10
2018-07-20T10:49:21.759Z,71.30
2018-07-20T10:51:50.964Z,71.20
2018-07-20T10:54:20.222Z,70.10
2018-07-20T10:56:49.502Z,71.30
2018-07-20T10:59:19.314Z,70.00
2018-07-20T11:01:48.515Z,69.00
2018-07-20T11:04:18.524Z,69.10
2018-07-20T11:06:47.742Z,70.20
2018-07-20T11:09:16.874Z,71.10
2018-07-20T11:11:46.113Z,68.00
2018-07-20T11:14:15.243Z,70.90
2018-07-20T11:16:44.448Z,70.30
2018-07-20T11:19:13.543Z,67.60
2018-07-20T11:21:42.712Z,68.30
2018-07-20T11:24:11.954Z,67.00
2018-07-20T11:26:41.134Z,71.30
2018-07-20T11:29:10.401Z,67.30
2018-07-20T11:31:39.592Z,64.80
2018-07-20T11:34:08.856Z,64.40
2018-07-20T11:36:38.017Z,63.50
2018-07-20T11:39:08.908Z,66.20
2018-07-20T11:41:38.779Z,63.20
2018-07-20T11:44:08.440Z,65.10
2018-07-20T11:46:37.556Z,67.70
2018-07-20T11:49:06.737Z,67.70
2018-07-20T11:51:36.048Z,68.00
2018-07-20T11:54:05.163Z,63.40
2018-07-20T11:56:34.314Z,65.20
2018-07-20T11:59:03.702Z,63.60
2018-07-20T12:01:32.849Z,64.40
2018-07-20T12:04:02.046Z,66.10
2018-07-20T12:06:31.175Z,64.90
2018-07-20T12:09:00.316Z,63.20
2018-07-20T12:11:29.507Z,62.50
2018-07-20T12:13:58.633Z,63.20
2018-07-20T12:16:27.767Z,63.50
2018-07-20T12:18:56.990Z,62.70
2018-07-20T12:21:26.094Z,63.80
2018-07-20T12:23:55.219Z,63.00
2018-07-20T12:28:53.167Z,63.90
2018-07-20T12:31:23.332Z,62.30
2018-07-20T12:33:52.732Z,62.00
2018-07-20T12:36:22.010Z,62.30
2018-07-20T12:38:51.186Z,62.30
2018-07-20T12:41:20.377Z,60.50
2018-07-20T12:43:49.519Z,60.60
2018-07-20T12:46:18.678Z,62.30
2018-07-20T12:48:47.914Z,63.10
2018-07-20T12:51:17.054Z,59.80
2018-07-20T12:53:46.320Z,62.30
2018-07-20T12:56:15.596Z,60.70
2018-07-20T12:58:44.830Z,60.60
2018-07-20T13:01:13.947Z,59.90
2018-07-20T13:03:43.105Z,59.80
2018-07-20T13:06:12.269Z,60.50
2018-07-20T13:08:41.476Z,60.60
2018-07-20T13:11:10.708Z,60.70
2018-07-20T13:16:08.665Z,61.70
2018-07-20T13:18:37.804Z,61.90
2018-07-20T13:21:07.316Z,60.80
2018-07-20T13:23:36.503Z,59.50
2018-07-20T13:26:05.892Z,58.50
2018-07-20T13:28:35.067Z,61.10
2018-07-20T13:31:04.304Z,59.60
2018-07-20T13:36:02.494Z,59.40
2018-07-20T13:38:31.701Z,59.10
2018-07-20T13:41:00.885Z,59.00
2018-07-20T13:43:30.104Z,58.40
2018-07-20T13:45:59.269Z,58.60
2018-07-20T13:48:28.479Z,57.80
2018-07-20T13:50:57.744Z,60.00
2018-07-20T13:53:26.965Z,60.00
2018-07-20T13:55:56.199Z,59.20
2018-07-20T13:58:25.383Z,58.80
2018-07-20T14:00:54.523Z,59.70
2018-07-20T14:03:23.888Z,60.60
2018-07-20T14:05:52.979Z,59.30
2018-07-20T14:08:22.209Z,59.20
2018-07-20T14:10:52.150Z,70.30
2018-07-20T14:13:21.305Z,72.20
2018-07-20T14:15:50.557Z,75.80
2018-07-20T14:18:19.698Z,78.60
2018-07-20T14:20:48.861Z,78.90
2018-07-20T14:23:18.017Z,82.60
2018-07-20T14:25:47.188Z,80.80
2018-07-20T14:28:16.336Z,81.80
2018-07-20T14:30:45.628Z,83.20
2018-07-20T14:33:14.848Z,83.20
2018-07-20T14:35:44.098Z,84.50
2018-07-20T14:38:13.224Z,84.50
2018-07-20T14:40:43.092Z,83.80
2018-07-20T14:43:12.390Z,82.80
2018-07-20T14:45:41.595Z,81.90
2018-07-20T14:48:10.875Z,84.40
2018-07-20T14:50:40.125Z,85.10
2018-07-20T14:53:09.359Z,86.00
2018-07-20T14:55:38.548Z,87.70
2018-07-20T14:58:07.733Z,88.10
2018-07-20T15:00:36.864Z,88.70
2018-07-20T15:03:06.176Z,87.60
2018-07-20T15:08:04.072Z,89.10
2018-07-20T15:10:33.240Z,88.90
2018-07-20T15:13:02.409Z,88.70
2018-07-20T15:15:31.544Z,88.00
2018-07-20T15:18:00.743Z,87.90
2018-07-20T15:20:29.903Z,88.80
2018-07-20T15:23:00.529Z,86.20
2018-07-20T15:25:29.769Z,85.60
2018-07-20T15:27:59.001Z,84.80
2018-07-20T15:30:28.241Z,86.10
2018-07-20T15:32:57.435Z,86.30
2018-07-20T15:35:26.671Z,84.00
2018-07-20T15:37:55.822Z,85.40
2018-07-20T15:40:24.967Z,85.80
2018-07-20T15:42:54.331Z,86.70
2018-07-20T15:45:23.528Z,85.30
2018-07-20T15:47:52.762Z,85.40
2018-07-20T15:50:21.933Z,85.60
2018-07-20T15:53:36.281Z,84.80
2018-07-20T15:55:20.224Z,86.50
2018-07-20T15:57:49.389Z,87.20
2018-07-20T16:00:18.605Z,87.60
2018-07-20T16:02:47.866Z,88.20
2018-07-20T16:05:17.057Z,87.60
2018-07-20T16:07:46.278Z,89.20
2018-07-20T16:12:44.326Z,90.40
2018-07-20T16:15:13.498Z,90.50
2018-07-20T16:17:42.629Z,90.60
2018-07-20T16:20:11.844Z,90.80
2018-07-20T16:22:41.004Z,91.00
2018-07-20T16:25:10.210Z,90.30
2018-07-20T16:27:39.341Z,90.50
2018-07-20T16:30:08.788Z,90.40
2018-07-20T16:32:37.935Z,90.40
2018-07-20T16:35:07.392Z,90.40
2018-07-20T16:37:36.572Z,89.90
2018-07-20T16:40:06.302Z,90.50
2018-07-20T16:42:35.451Z,90.30
2018-07-20T16:45:04.881Z,90.60
2018-07-20T16:47:33.995Z,90.80
2018-07-20T16:50:03.189Z,90.50
2018-07-20T16:52:32.312Z,91.00
2018-07-20T16:55:01.462Z,91.10
2018-07-20T16:59:59.366Z,91.20
2018-07-20T17:02:28.492Z,92.00
2018-07-20T17:04:57.740Z,91.80
2018-07-20T17:07:26.879Z,92.50
2018-07-20T17:09:55.985Z,92.20
2018-07-20T17:12:25.100Z,92.70
2018-07-20T17:22:21.317Z,92.40
2018-07-20T17:24:50.553Z,92.80
2018-07-20T17:27:19.700Z,92.60
2018-07-20T17:29:48.989Z,93.10
2018-07-20T17:32:18.155Z,93.50
2018-07-20T17:34:47.296Z,92.80
2018-07-20T17:37:16.461Z,92.90
2018-07-20T17:39:45.600Z,93.30
2018-07-20T17:42:14.844Z,93.60
2018-07-20T17:44:43.983Z,94.10
2018-07-20T17:47:13.139Z,94.90
2018-07-20T17:49:42.364Z,94.40
2018-07-20T17:52:11.651Z,94.60
2018-07-20T17:54:40.877Z,94.80
2018-07-20T17:57:10.045Z,95.00
2018-07-20T17:59:39.215Z,95.30
2018-07-20T18:02:08.581Z,95.80
2018-07-20T18:04:37.728Z,95.70
2018-07-20T18:07:06.928Z,95.80
2018-07-20T18:09:36.649Z,95.50
2018-07-20T18:12:06.253Z,95.90
2018-07-20T18:14:35.380Z,96.30
2018-07-20T18:17:04.553Z,96.00
2018-07-20T18:19:33.707Z,96.20
2018-07-20T18:22:02.882Z,96.10
2018-07-20T18:24:32.113Z,96.50
2018-07-20T18:27:01.389Z,96.50
2018-07-20T18:29:30.545Z,96.60
2018-07-20T18:31:59.715Z,97.10
2018-07-20T18:34:28.872Z,97.50
2018-07-20T18:36:58.052Z,98.00
2018-07-20T18:39:27.269Z,98.40
2018-07-20T18:41:56.448Z,98.50
2018-07-20T18:44:25.547Z,98.40
2018-07-20T18:46:54.805Z,98.40
2018-07-20T18:49:23.964Z,98.80
2018-07-20T18:51:53.140Z,98.70
2018-07-20T18:54:22.291Z,99.00
2018-07-20T18:56:51.414Z,99.00
2018-07-20T18:59:21.113Z,99.20
2018-07-20T19:01:50.271Z,99.70
2018-07-20T19:04:19.368Z,99.50
2018-07-20T19:06:48.651Z,99.90
2018-07-20T19:09:17.830Z,99.90
2018-07-20T19:11:47.826Z,99.90
2018-07-20T19:14:16.985Z,99.90
2018-07-20T19:19:14.796Z,99.90
2018-07-20T19:21:44.008Z,99.80
2018-07-20T19:24:13.253Z,99.60
2018-07-20T19:26:42.482Z,99.80
2018-07-20T19:29:11.709Z,99.60
2018-07-20T19:31:40.925Z,99.60
2018-07-20T19:34:10.175Z,99.30
2018-07-20T19:36:39.349Z,99.30
2018-07-20T19:39:10.837Z,99.50
2018-07-20T19:41:40.356Z,99.90
2018-07-20T19:44:09.656Z,99.40
2018-07-20T19:46:38.860Z,99.40
2018-07-20T19:49:08.063Z,99.30
2018-07-20T19:51:37.243Z,99.40
2018-07-20T19:54:06.483Z,99.60
2018-07-20T19:56:35.652Z,99.90
2018-07-20T19:59:05.273Z,99.90
2018-07-20T20:01:34.473Z,99.90
2018-07-20T20:04:03.603Z,99.90
2018-07-20T20:06:32.744Z,99.90
2018-07-20T20:09:02.122Z,99.90
2018-07-20T20:11:32.124Z,99.90
2018-07-20T20:14:01.324Z,99.90
2018-07-20T20:16:30.474Z,99.90
2018-07-20T20:18:59.692Z,99.90
2018-07-20T20:21:28.819Z,99.90
2018-07-20T20:23:57.972Z,99.90
2018-07-20T20:26:27.209Z,99.90
2018-07-20T20:28:56.347Z,99.90
2018-07-20T20:31:25.606Z,99.90
2018-07-20T20:33:54.768Z,99.90
2018-07-20T20:36:23.926Z,99.90
2018-07-20T20:38:53.064Z,99.90
2018-07-20T20:41:22.241Z,99.90
2018-07-20T20:43:51.433Z,99.90
2018-07-20T20:46:20.533Z,99.90
2018-07-20T20:48:49.677Z,99.90
2018-07-20T20:51:18.876Z,99.90
2018-07-20T20:53:48.064Z,99.90
2018-07-20T20:56:17.201Z,99.90
2018-07-20T20:58:46.298Z,99.90
2018-07-20T21:01:15.501Z,99.90
2018-07-20T21:03:44.656Z,99.90
2018-07-20T21:06:13.918Z,99.90
2018-07-20T21:08:43.101Z,99.90
2018-07-20T21:13:41.033Z,99.90
2018-07-20T21:16:10.190Z,99.90
2018-07-20T21:18:39.439Z,99.90
2018-07-20T21:21:08.696Z,99.90
2018-07-20T21:23:37.812Z,99.90
2018-07-20T21:26:06.948Z,99.90
2018-07-20T21:28:36.075Z,99.90
2018-07-20T21:31:05.193Z,99.90
2018-07-20T21:33:34.384Z,99.90
2018-07-20T21:36:03.509Z,99.90
2018-07-20T21:38:33.435Z,99.90
2018-07-20T21:41:02.608Z,99.90
2018-07-20T21:43:31.885Z,99.90
2018-07-20T21:46:01.004Z,99.90
2018-07-20T21:48:30.152Z,99.90
2018-07-20T21:50:59.300Z,99.90
2018-07-20T21:53:28.441Z,99.90
2018-07-20T21:55:58.044Z,99.90
2018-07-20T21:58:27.220Z,99.90
2018-07-20T22:00:56.499Z,99.90
2018-07-20T22:03:25.628Z,99.90
2018-07-20T22:05:54.773Z,99.90
2018-07-20T22:08:23.955Z,99.90
2018-07-20T22:10:53.103Z,99.90
2018-07-20T22:13:22.225Z,99.90
2018-07-20T22:15:51.343Z,99.90
2018-07-20T22:18:20.502Z,99.90
2018-07-20T22:20:49.643Z,99.90
2018-07-20T22:23:18.839Z,99.90
2018-07-20T22:25:47.984Z,99.90
2018-07-20T22:28:17.257Z,99.90
2018-07-20T22:30:46.482Z,99.90
2018-07-20T22:33:15.679Z,99.90
2018-07-20T22:35:45.406Z,99.90
2018-07-20T22:38:14.566Z,99.90
2018-07-20T22:40:43.677Z,99.90
2018-07-20T22:43:12.944Z,99.90
2018-07-20T22:45:42.056Z,99.90
2018-07-20T22:48:11.355Z,99.90
2018-07-20T22:50:40.615Z,99.90
2018-07-20T22:53:09.760Z,99.90
2018-07-20T22:55:38.903Z,99.90
2018-07-20T22:58:08.013Z,99.90
2018-07-20T23:00:37.139Z,99.90
2018-07-20T23:03:06.453Z,99.90
2018-07-20T23:05:35.581Z,99.90
2018-07-20T23:08:04.738Z,99.90
2018-07-20T23:10:33.830Z,99.90
2018-07-20T23:13:02.999Z,99.90
2018-07-20T23:15:32.157Z,99.90
2018-07-20T23:18:01.325Z,99.90
2018-07-20T23:20:30.589Z,99.90
2018-07-20T23:22:59.727Z,99.90
2018-07-20T23:25:28.847Z,99.90
2018-07-20T23:27:58.060Z,99.90
2018-07-20T23:30:27.230Z,99.90
2018-07-20T23:32:56.484Z,99.90
2018-07-20T23:35:25.623Z,99.90
2018-07-20T23:37:54.839Z,99.90
2018-07-20T23:40:23.967Z,99.90
2018-07-20T23:42:53.072Z,99.90
2018-07-20T23:45:22.180Z,99.90
2018-07-20T23:47:51.393Z,99.90
2018-07-20T23:50:20.642Z,99.90
2018-07-20T23:52:49.833Z,99.90
2018-07-20T23:55:19.156Z,99.90
2018-07-20T23:57:48.265Z,99.90
